Hemingford, NE (69348)

3:02 PM MST on December 28, 2014 (GMT -0700)
Panhandle Coop/Box Butte Co | Change Station
CLOSE
Current Station
Personal Weather Station
Location: Alliance, NE
Elevation: 4140 ft
Nearby Weather Stations
Active Advisory: Special Statement

Elev 4140 ft 42.22 °N, 102.98 °W | Updated 14 minutes ago

Snow
Snow
28.2 °F
Feels Like 24 °F
N
4.0
Wind Variable Wind from SSE
Gusts 5.0 mph

Today
High -- | Low -- °F
--% Chance of Precip.
Yesterday
High -- | Low -- °F
Precip. -- in
7:20 AM 4:27 PM
First Quarter, 52% visible
Pressure 30.08 in
Visibility 3.0 miles
Clouds Mostly Cloudy 2400 ft
Overcast 3400 ft
Windchill 24 °F
Dew Point 25 °F
Humidity 86%
Rainfall 0.00 in
Snow Depth Not available.
UV 0 out of 12
Pollen .10 out of 12
Air Quality Not available.
Flu Activity Not available.
METAR KAIA 282153Z AUTO 00000KT 3SM -SN BR BKN024 OVC034 M03/M04 A2990 RMK AO2 SLP185 P0000 T10281044

More Conditions Fewer Conditions

Pressure 30.08 in
Visibility 3.0 miles
Clouds Mostly Cloudy 2400 ft
Overcast 3400 ft
Windchill 24 °F
Dew Point 25 °F
Humidity 86%
Rainfall 0.00 in
Snow Depth Not available.
UV 0 out of 12
Pollen .10 out of 12
Air Quality Not available.
Flu Activity Not available.
METAR KAIA 282153Z AUTO 00000KT 3SM -SN BR BKN024 OVC034 M03/M04 A2990 RMK AO2 SLP185 P0000 T10281044

More Conditions Fewer Conditions

10-Day Weather Forecast

Almanac

Astronomy

Dec. 28, 2014 Rise Set
Actual Time
Civil Twilight
Nautical Twilight
Astronomical Twilight
Moon
Length of Visible Light
Length of Day
Tomorrow will be .
, % of the Moon is Illuminated

Today's Extremes

State Highs State Lows

Community

WunderPhotos

Upload Photos

1,781,444 photos uploaded!

WunderBlogs® & News

Nearby

Air Quality

  Air Quality AQ Index Pollutant
Not available.

Snow Depth

Station Depth Elevation

Earthquake Activity

City Distance Mag. Time & Date
Minimum magnitude displayed is 2.5.

Coastal Water Temperatures

Place Temperature

Nearby Weather Stations